sensor_id;sensor_type;location;lat;lon;timestamp;pressure;altitude;pressure_sealevel;temperature;humidity
51617;BME280;37697;52.588;13.394;2022-11-18T00:03:31;99838.23;;;0.61;82.13
51617;BME280;37697;52.588;13.394;2022-11-18T00:08:32;99849.87;;;0.59;82.11
51617;BME280;37697;52.588;13.394;2022-11-18T00:13:33;99857.70;;;0.58;82.07
51617;BME280;37697;52.588;13.394;2022-11-18T00:18:53;99866.94;;;0.59;82.08
51617;BME280;37697;52.588;13.394;2022-11-18T00:23:53;99857.70;;;0.58;81.65
51617;BME280;37697;52.588;13.394;2022-11-18T00:28:54;99848.73;;;0.54;81.77
51617;BME280;37697;52.588;13.394;2022-11-18T00:33:54;99840.08;;;0.55;81.52
51617;BME280;37697;52.588;13.394;2022-11-18T00:38:56;99851.14;;;0.51;81.32
51617;BME280;37697;52.588;13.394;2022-11-18T00:43:57;99859.81;;;0.50;81.26
51617;BME280;37697;52.588;13.394;2022-11-18T00:48:57;99862.78;;;0.49;81.04
51617;BME280;37697;52.588;13.394;2022-11-18T00:53:58;99870.06;;;0.46;80.93
51617;BME280;37697;52.588;13.394;2022-11-18T00:58:59;99866.00;;;0.46;81.09
51617;BME280;37697;52.588;13.394;2022-11-18T01:04:00;99864.39;;;0.47;81.04
51617;BME280;37697;52.588;13.394;2022-11-18T01:09:01;99866.54;;;0.45;80.88
51617;BME280;37697;52.588;13.394;2022-11-18T01:14:01;99867.89;;;0.43;80.74
51617;BME280;37697;52.588;13.394;2022-11-18T01:19:02;99870.81;;;0.38;80.43
51617;BME280;37697;52.588;13.394;2022-11-18T01:24:03;99868.03;;;0.28;80.23
51617;BME280;37697;52.588;13.394;2022-11-18T01:29:04;99873.91;;;0.23;80.52
51617;BME280;37697;52.588;13.394;2022-11-18T01:34:05;99881.48;;;0.21;80.47
51617;BME280;37697;52.588;13.394;2022-11-18T01:39:06;99874.15;;;0.18;80.45
51617;BME280;37697;52.588;13.394;2022-11-18T01:49:59;99876.51;;;0.12;80.51
51617;BME280;37697;52.588;13.394;2022-11-18T01:55:06;99872.67;;;0.06;80.62
51617;BME280;37697;52.588;13.394;2022-11-18T02:00:06;99873.97;;;0.01;80.73
51617;BME280;37697;52.588;13.394;2022-11-18T02:05:09;99872.31;;;-0.03;80.93
51617;BME280;37697;52.588;13.394;2022-11-18T02:10:20;99879.33;;;-0.05;80.88
51617;BME280;37697;52.588;13.394;2022-11-18T02:15:33;99872.81;;;-0.06;80.99
51617;BME280;37697;52.588;13.394;2022-11-18T02:20:50;99875.77;;;-0.08;80.98
51617;BME280;37697;52.588;13.394;2022-11-18T02:36:56;99889.47;;;-0.17;80.84
51617;BME280;37697;52.588;13.394;2022-11-18T02:41:59;99888.12;;;-0.17;81.06
51617;BME280;37697;52.588;13.394;2022-11-18T02:47:05;99884.55;;;-0.20;80.94
51617;BME280;37697;52.588;13.394;2022-11-18T02:52:09;99888.05;;;-0.22;80.78
51617;BME280;37697;52.588;13.394;2022-11-18T02:57:12;99880.19;;;-0.24;80.75
51617;BME280;37697;52.588;13.394;2022-11-18T03:02:16;99876.91;;;-0.26;80.72
51617;BME280;37697;52.588;13.394;2022-11-18T03:07:28;99876.38;;;-0.25;80.60
51617;BME280;37697;52.588;13.394;2022-11-18T03:18:00;99889.09;;;-0.26;80.81
51617;BME280;37697;52.588;13.394;2022-11-18T03:28:39;99882.77;;;-0.34;80.77
51617;BME280;37697;52.588;13.394;2022-11-18T03:33:58;99895.17;;;-0.38;80.85
51617;BME280;37697;52.588;13.394;2022-11-18T03:39:05;99899.45;;;-0.42;80.99
51617;BME280;37697;52.588;13.394;2022-11-18T03:44:16;99898.03;;;-0.47;81.21
51617;BME280;37697;52.588;13.394;2022-11-18T03:49:21;99911.27;;;-0.48;81.23
51617;BME280;37697;52.588;13.394;2022-11-18T03:54:26;99913.70;;;-0.49;81.40
51617;BME280;37697;52.588;13.394;2022-11-18T03:59:42;99911.19;;;-0.53;81.62
51617;BME280;37697;52.588;13.394;2022-11-18T04:04:41;99919.80;;;-0.57;81.76
51617;BME280;37697;52.588;13.394;2022-11-18T04:15:15;99925.97;;;-0.61;82.08
51617;BME280;37697;52.588;13.394;2022-11-18T04:20:19;99931.87;;;-0.64;82.55
51617;BME280;37697;52.588;13.394;2022-11-18T04:25:20;99933.47;;;-0.66;82.43
51617;BME280;37697;52.588;13.394;2022-11-18T04:30:21;99942.94;;;-0.66;82.49
51617;BME280;37697;52.588;13.394;2022-11-18T04:35:22;99934.82;;;-0.66;82.71
51617;BME280;37697;52.588;13.394;2022-11-18T04:40:23;99934.50;;;-0.69;82.78
51617;BME280;37697;52.588;13.394;2022-11-18T04:45:24;99934.18;;;-0.73;82.99
51617;BME280;37697;52.588;13.394;2022-11-18T04:50:24;99942.27;;;-0.75;82.82
51617;BME280;37697;52.588;13.394;2022-11-18T04:55:25;99950.05;;;-0.79;82.99
51617;BME280;37697;52.588;13.394;2022-11-18T05:00:27;99953.55;;;-0.81;82.81
51617;BME280;37697;52.588;13.394;2022-11-18T05:05:27;99956.77;;;-0.82;82.74
51617;BME280;37697;52.588;13.394;2022-11-18T05:10:28;99969.77;;;-0.81;82.79
51617;BME280;37697;52.588;13.394;2022-11-18T05:15:29;99971.63;;;-0.82;82.63
51617;BME280;37697;52.588;13.394;2022-11-18T05:20:29;99972.95;;;-0.84;82.11
51617;BME280;37697;52.588;13.394;2022-11-18T05:25:30;99975.09;;;-0.86;82.34
51617;BME280;37697;52.588;13.394;2022-11-18T05:30:31;99978.61;;;-0.86;82.00
51617;BME280;37697;52.588;13.394;2022-11-18T05:35:31;99975.34;;;-0.88;81.89
51617;BME280;37697;52.588;13.394;2022-11-18T05:40:32;99993.09;;;-0.92;81.79
51617;BME280;37697;52.588;13.394;2022-11-18T05:45:32;99999.02;;;-0.95;81.60
51617;BME280;37697;52.588;13.394;2022-11-18T05:50:36;100005.14;;;-1.00;81.37
51617;BME280;37697;52.588;13.394;2022-11-18T05:55:41;100012.92;;;-1.03;81.40
51617;BME280;37697;52.588;13.394;2022-11-18T06:00:45;100018.80;;;-1.06;81.08
51617;BME280;37697;52.588;13.394;2022-11-18T06:05:49;100026.97;;;-1.04;81.27
51617;BME280;37697;52.588;13.394;2022-11-18T06:10:56;100041.06;;;-1.02;81.11
51617;BME280;37697;52.588;13.394;2022-11-18T06:15:58;100033.73;;;-1.04;80.43
51617;BME280;37697;52.588;13.394;2022-11-18T06:21:00;100044.78;;;-1.05;80.04
51617;BME280;37697;52.588;13.394;2022-11-18T06:26:03;100050.09;;;-1.10;79.64
51617;BME280;37697;52.588;13.394;2022-11-18T06:31:04;100054.36;;;-1.15;79.38
51617;BME280;37697;52.588;13.394;2022-11-18T06:36:05;100059.80;;;-1.12;79.44
51617;BME280;37697;52.588;13.394;2022-11-18T06:41:06;100067.56;;;-1.16;79.07
51617;BME280;37697;52.588;13.394;2022-11-18T06:46:10;100068.38;;;-1.15;79.13
51617;BME280;37697;52.588;13.394;2022-11-18T06:51:31;100090.23;;;-1.17;78.70
51617;BME280;37697;52.588;13.394;2022-11-18T06:56:33;100091.86;;;-1.18;79.07
51617;BME280;37697;52.588;13.394;2022-11-18T07:01:37;100093.44;;;-1.20;78.25
51617;BME280;37697;52.588;13.394;2022-11-18T07:06:39;100108.78;;;-1.23;78.42
51617;BME280;37697;52.588;13.394;2022-11-18T07:11:40;100104.92;;;-1.27;78.00
51617;BME280;37697;52.588;13.394;2022-11-18T07:16:41;100116.75;;;-1.30;77.92
51617;BME280;37697;52.588;13.394;2022-11-18T07:21:41;100111.84;;;-1.31;78.28
51617;BME280;37697;52.588;13.394;2022-11-18T07:26:42;100123.84;;;-1.27;77.58
51617;BME280;37697;52.588;13.394;2022-11-18T07:31:43;100128.40;;;-1.27;77.53
51617;BME280;37697;52.588;13.394;2022-11-18T07:36:44;100129.24;;;-1.27;77.41
51617;BME280;37697;52.588;13.394;2022-11-18T07:41:44;100139.44;;;-1.29;76.83
51617;BME280;37697;52.588;13.394;2022-11-18T07:46:45;100138.87;;;-1.31;76.85
51617;BME280;37697;52.588;13.394;2022-11-18T07:51:46;100148.90;;;-1.29;76.91
51617;BME280;37697;52.588;13.394;2022-11-18T07:56:46;100154.91;;;-1.27;76.72
51617;BME280;37697;52.588;13.394;2022-11-18T08:01:47;100144.38;;;-1.26;76.97
51617;BME280;37697;52.588;13.394;2022-11-18T08:06:48;100151.77;;;-1.21;76.06
51617;BME280;37697;52.588;13.394;2022-11-18T08:11:49;100152.59;;;-1.21;76.26
51617;BME280;37697;52.588;13.394;2022-11-18T08:16:49;100159.65;;;-1.20;75.84
51617;BME280;37697;52.588;13.394;2022-11-18T08:21:50;100165.45;;;-1.25;75.61
51617;BME280;37697;52.588;13.394;2022-11-18T08:26:51;100174.64;;;-1.26;75.69
51617;BME280;37697;52.588;13.394;2022-11-18T08:31:52;100170.24;;;-1.30;75.30
51617;BME280;37697;52.588;13.394;2022-11-18T08:36:54;100178.81;;;-1.33;75.50
51617;BME280;37697;52.588;13.394;2022-11-18T08:41:56;100180.98;;;-1.32;75.73
51617;BME280;37697;52.588;13.394;2022-11-18T08:46:57;100194.75;;;-1.34;75.07
51617;BME280;37697;52.588;13.394;2022-11-18T08:51:58;100199.44;;;-1.41;74.95
51617;BME280;37697;52.588;13.394;2022-11-18T08:57:00;100201.86;;;-1.42;75.05
51617;BME280;37697;52.588;13.394;2022-11-18T09:02:00;100204.80;;;-1.44;75.23
51617;BME280;37697;52.588;13.394;2022-11-18T09:07:01;100219.95;;;-1.43;75.07
51617;BME280;37697;52.588;13.394;2022-11-18T09:12:02;100224.83;;;-1.42;74.67
51617;BME280;37697;52.588;13.394;2022-11-18T09:17:03;100228.64;;;-1.41;75.18
51617;BME280;37697;52.588;13.394;2022-11-18T09:22:04;100233.92;;;-1.34;75.02
51617;BME280;37697;52.588;13.394;2022-11-18T09:27:06;100245.13;;;-1.28;74.86
51617;BME280;37697;52.588;13.394;2022-11-18T09:32:07;100252.19;;;-1.27;75.06
51617;BME280;37697;52.588;13.394;2022-11-18T09:37:08;100266.44;;;-1.29;74.38
51617;BME280;37697;52.588;13.394;2022-11-18T09:42:37;100260.98;;;-1.31;74.88
51617;BME280;37697;52.588;13.394;2022-11-18T09:47:42;100280.71;;;-1.31;74.75
51617;BME280;37697;52.588;13.394;2022-11-18T09:57:51;100274.03;;;-1.28;74.62
51617;BME280;37697;52.588;13.394;2022-11-18T10:03:00;100267.32;;;-1.26;74.60
51617;BME280;37697;52.588;13.394;2022-11-18T10:18:52;100296.27;;;-1.12;74.82
51617;BME280;37697;52.588;13.394;2022-11-18T10:24:11;100285.23;;;-1.10;74.40
51617;BME280;37697;52.588;13.394;2022-11-18T10:29:13;100292.68;;;-1.03;74.25
51617;BME280;37697;52.588;13.394;2022-11-18T10:34:16;100301.44;;;-0.99;73.54
51617;BME280;37697;52.588;13.394;2022-11-18T10:39:18;100299.13;;;-1.04;73.51
51617;BME280;37697;52.588;13.394;2022-11-18T10:44:39;100301.33;;;-1.04;73.69
51617;BME280;37697;52.588;13.394;2022-11-18T10:49:40;100307.12;;;-0.98;73.74
51617;BME280;37697;52.588;13.394;2022-11-18T10:54:41;100317.52;;;-0.92;72.52
51617;BME280;37697;52.588;13.394;2022-11-18T10:59:50;100312.60;;;-0.95;73.00
51617;BME280;37697;52.588;13.394;2022-11-18T11:04:57;100321.30;;;-0.93;73.10
51617;BME280;37697;52.588;13.394;2022-11-18T11:15:15;100331.22;;;-0.84;72.95
51617;BME280;37697;52.588;13.394;2022-11-18T11:20:20;100333.84;;;-0.75;73.01
51617;BME280;37697;52.588;13.394;2022-11-18T11:25:27;100333.64;;;-0.71;73.30
51617;BME280;37697;52.588;13.394;2022-11-18T11:30:32;100331.55;;;-0.69;72.31
51617;BME280;37697;52.588;13.394;2022-11-18T11:41:01;100335.17;;;-0.63;72.00
51617;BME280;37697;52.588;13.394;2022-11-18T11:52:19;100335.30;;;-0.44;71.16
51617;BME280;37697;52.588;13.394;2022-11-18T12:03:19;100353.47;;;-0.27;70.29
51617;BME280;37697;52.588;13.394;2022-11-18T12:08:25;100355.94;;;-0.26;69.89
51617;BME280;37697;52.588;13.394;2022-11-18T12:19:00;100352.56;;;-0.18;70.35
51617;BME280;37697;52.588;13.394;2022-11-18T12:35:00;100381.03;;;0.13;67.93
51617;BME280;37697;52.588;13.394;2022-11-18T12:40:31;100386.44;;;0.27;67.93
51617;BME280;37697;52.588;13.394;2022-11-18T12:50:52;100387.02;;;0.29;68.23
51617;BME280;37697;52.588;13.394;2022-11-18T12:55:54;100396.49;;;0.29;67.84
51617;BME280;37697;52.588;13.394;2022-11-18T13:01:08;100394.17;;;0.21;67.26
51617;BME280;37697;52.588;13.394;2022-11-18T13:06:20;100395.94;;;-0.02;67.27
51617;BME280;37697;52.588;13.394;2022-11-18T13:11:27;100395.55;;;-0.34;67.19
51617;BME280;37697;52.588;13.394;2022-11-18T13:16:47;100392.55;;;-0.49;68.06
51617;BME280;37697;52.588;13.394;2022-11-18T13:22:15;100392.59;;;-0.59;68.34
51617;BME280;37697;52.588;13.394;2022-11-18T13:27:55;100402.69;;;-0.68;68.21
51617;BME280;37697;52.588;13.394;2022-11-18T13:32:59;100402.38;;;-0.58;68.45
51617;BME280;37697;52.588;13.394;2022-11-18T13:38:01;100403.06;;;-0.50;67.81
51617;BME280;37697;52.588;13.394;2022-11-18T13:43:01;100403.05;;;-0.39;68.01
51617;BME280;37697;52.588;13.394;2022-11-18T13:48:11;100404.78;;;-0.32;68.21
51617;BME280;37697;52.588;13.394;2022-11-18T13:58:35;100419.41;;;-0.19;68.24
51617;BME280;37697;52.588;13.394;2022-11-18T14:04:04;100420.77;;;-0.19;67.95
51617;BME280;37697;52.588;13.394;2022-11-18T14:14:29;100439.53;;;-0.27;67.42
51617;BME280;37697;52.588;13.394;2022-11-18T14:19:33;100444.56;;;-0.33;67.59
51617;BME280;37697;52.588;13.394;2022-11-18T14:24:35;100444.45;;;-0.38;67.02
51617;BME280;37697;52.588;13.394;2022-11-18T14:29:36;100447.28;;;-0.45;67.15
51617;BME280;37697;52.588;13.394;2022-11-18T14:34:37;100455.16;;;-0.55;67.49
51617;BME280;37697;52.588;13.394;2022-11-18T14:39:37;100456.89;;;-0.63;67.65
51617;BME280;37697;52.588;13.394;2022-11-18T14:44:39;100469.99;;;-0.69;67.44
51617;BME280;37697;52.588;13.394;2022-11-18T14:49:39;100475.81;;;-0.75;67.81
51617;BME280;37697;52.588;13.394;2022-11-18T14:54:40;100478.13;;;-0.81;67.77
51617;BME280;37697;52.588;13.394;2022-11-18T14:59:41;100488.69;;;-0.91;67.78
51617;BME280;37697;52.588;13.394;2022-11-18T15:04:43;100491.90;;;-0.92;68.02
51617;BME280;37697;52.588;13.394;2022-11-18T15:09:44;100492.48;;;-1.02;68.01
51617;BME280;37697;52.588;13.394;2022-11-18T15:14:45;100501.05;;;-1.05;68.17
51617;BME280;37697;52.588;13.394;2022-11-18T15:19:45;100505.28;;;-1.09;68.38
51617;BME280;37697;52.588;13.394;2022-11-18T15:24:46;100504.62;;;-1.13;68.57
51617;BME280;37697;52.588;13.394;2022-11-18T15:29:47;100514.79;;;-1.18;68.48
51617;BME280;37697;52.588;13.394;2022-11-18T15:34:49;100520.65;;;-1.21;68.82
51617;BME280;37697;52.588;13.394;2022-11-18T15:39:50;100525.61;;;-1.27;68.72
51617;BME280;37697;52.588;13.394;2022-11-18T15:44:50;100539.28;;;-1.31;69.01
51617;BME280;37697;52.588;13.394;2022-11-18T15:49:51;100535.32;;;-1.38;69.17
51617;BME280;37697;52.588;13.394;2022-11-18T15:54:52;100537.02;;;-1.46;69.40
51617;BME280;37697;52.588;13.394;2022-11-18T15:59:53;100542.58;;;-1.60;69.41
51617;BME280;37697;52.588;13.394;2022-11-18T16:04:54;100552.27;;;-1.70;69.68
51617;BME280;37697;52.588;13.394;2022-11-18T16:09:55;100554.61;;;-1.83;69.87
51617;BME280;37697;52.588;13.394;2022-11-18T16:15:15;100542.45;;;-2.11;70.20
51617;BME280;37697;52.588;13.394;2022-11-18T16:20:35;100570.85;;;-2.08;70.22
51617;BME280;37697;52.588;13.394;2022-11-18T16:25:43;100570.85;;;-2.08;70.22
51617;BME280;37697;52.588;13.394;2022-11-18T16:30:49;100568.52;;;-2.23;70.47
51617;BME280;37697;52.588;13.394;2022-11-18T16:36:08;100552.54;;;-2.43;70.57
51617;BME280;37697;52.588;13.394;2022-11-18T16:41:09;100552.54;;;-2.43;70.57
51617;BME280;37697;52.588;13.394;2022-11-18T16:46:30;100581.24;;;-2.40;70.67
51617;BME280;37697;52.588;13.394;2022-11-18T16:51:33;100587.05;;;-2.52;70.79
51617;BME280;37697;52.588;13.394;2022-11-18T16:56:34;100607.16;;;-2.64;70.96
51617;BME280;37697;52.588;13.394;2022-11-18T17:01:35;100607.16;;;-2.64;70.96
51617;BME280;37697;52.588;13.394;2022-11-18T17:06:37;100610.95;;;-2.72;71.10
51617;BME280;37697;52.588;13.394;2022-11-18T17:11:38;100612.55;;;-2.80;71.11
51617;BME280;37697;52.588;13.394;2022-11-18T17:16:40;100617.98;;;-2.87;71.28
51617;BME280;37697;52.588;13.394;2022-11-18T17:21:41;100619.08;;;-2.94;71.36
51617;BME280;37697;52.588;13.394;2022-11-18T17:26:43;100621.81;;;-3.01;71.46
51617;BME280;37697;52.588;13.394;2022-11-18T17:31:44;100620.20;;;-3.09;71.56
51617;BME280;37697;52.588;13.394;2022-11-18T17:36:45;100625.91;;;-3.14;71.81
51617;BME280;37697;52.588;13.394;2022-11-18T17:41:46;100633.52;;;-3.20;71.81
51617;BME280;37697;52.588;13.394;2022-11-18T17:47:05;100633.55;;;-3.27;71.85
51617;BME280;37697;52.588;13.394;2022-11-18T17:52:06;100642.39;;;-3.36;71.96
51617;BME280;37697;52.588;13.394;2022-11-18T17:57:08;100640.03;;;-3.41;71.96
51617;BME280;37697;52.588;13.394;2022-11-18T18:02:10;100633.03;;;-3.49;72.08
51617;BME280;37697;52.588;13.394;2022-11-18T18:07:12;100641.73;;;-3.54;72.26
51617;BME280;37697;52.588;13.394;2022-11-18T18:12:12;100639.38;;;-3.59;72.25
51617;BME280;37697;52.588;13.394;2022-11-18T18:17:32;100651.51;;;-3.66;72.29
51617;BME280;37697;52.588;13.394;2022-11-18T18:22:32;100649.88;;;-3.74;72.39
51617;BME280;37697;52.588;13.394;2022-11-18T18:27:33;100656.91;;;-3.79;72.45
51617;BME280;37697;52.588;13.394;2022-11-18T18:32:34;100668.86;;;-3.85;72.47
51617;BME280;37697;52.588;13.394;2022-11-18T18:37:35;100682.31;;;-3.91;72.53
51617;BME280;37697;52.588;13.394;2022-11-18T18:42:36;100676.93;;;-3.98;72.53
51617;BME280;37697;52.588;13.394;2022-11-18T18:47:36;100682.23;;;-4.07;72.59
51617;BME280;37697;52.588;13.394;2022-11-18T18:52:37;100685.23;;;-4.13;72.70
51617;BME280;37697;52.588;13.394;2022-11-18T18:57:38;100684.17;;;-4.19;72.80
51617;BME280;37697;52.588;13.394;2022-11-18T19:02:40;100689.67;;;-4.23;72.81
51617;BME280;37697;52.588;13.394;2022-11-18T19:07:41;100692.55;;;-4.31;72.80
51617;BME280;37697;52.588;13.394;2022-11-18T19:12:42;100693.80;;;-4.40;72.80
51617;BME280;37697;52.588;13.394;2022-11-18T19:17:43;100690.59;;;-4.46;73.00
51617;BME280;37697;52.588;13.394;2022-11-18T19:22:44;100695.56;;;-4.50;73.14
51617;BME280;37697;52.588;13.394;2022-11-18T19:27:45;100700.39;;;-4.56;73.24
51617;BME280;37697;52.588;13.394;2022-11-18T19:32:47;100707.42;;;-4.62;73.27
51617;BME280;37697;52.588;13.394;2022-11-18T19:37:48;100712.78;;;-4.68;73.28
51617;BME280;37697;52.588;13.394;2022-11-18T19:42:49;100718.45;;;-4.74;73.38
51617;BME280;37697;52.588;13.394;2022-11-18T19:47:50;100723.28;;;-4.80;73.45
51617;BME280;37697;52.588;13.394;2022-11-18T19:52:50;100725.05;;;-4.83;73.61
51617;BME280;37697;52.588;13.394;2022-11-18T19:57:51;100731.41;;;-4.91;73.57
51617;BME280;37697;52.588;13.394;2022-11-18T20:02:52;100746.61;;;-4.94;73.60
51617;BME280;37697;52.588;13.394;2022-11-18T20:07:53;100743.70;;;-4.99;73.65
51617;BME280;37697;52.588;13.394;2022-11-18T20:12:55;100744.48;;;-5.05;73.69
51617;BME280;37697;52.588;13.394;2022-11-18T20:17:56;100748.08;;;-5.09;73.71
51617;BME280;37697;52.588;13.394;2022-11-18T20:22:57;100749.72;;;-5.15;73.71
51617;BME280;37697;52.588;13.394;2022-11-18T20:27:58;100753.52;;;-5.20;73.85
51617;BME280;37697;52.588;13.394;2022-11-18T20:32:59;100761.66;;;-5.24;73.84
51617;BME280;37697;52.588;13.394;2022-11-18T20:38:00;100766.98;;;-5.30;73.83
51617;BME280;37697;52.588;13.394;2022-11-18T20:43:01;100768.28;;;-5.37;73.87
51617;BME280;37697;52.588;13.394;2022-11-18T20:48:11;100774.75;;;-5.42;74.01
51617;BME280;37697;52.588;13.394;2022-11-18T20:53:14;100784.23;;;-5.46;74.08
51617;BME280;37697;52.588;13.394;2022-11-18T20:58:15;100787.20;;;-5.52;74.11
51617;BME280;37697;52.588;13.394;2022-11-18T21:03:16;100793.33;;;-5.58;74.10
51617;BME280;37697;52.588;13.394;2022-11-18T21:08:17;100799.80;;;-5.63;74.24
51617;BME280;37697;52.588;13.394;2022-11-18T21:13:18;100799.98;;;-5.65;74.29
51617;BME280;37697;52.588;13.394;2022-11-18T21:18:37;100808.12;;;-5.69;74.27
51617;BME280;37697;52.588;13.394;2022-11-18T21:23:38;100806.01;;;-5.74;74.23
51617;BME280;37697;52.588;13.394;2022-11-18T21:28:39;100810.45;;;-5.77;74.37
51617;BME280;37697;52.588;13.394;2022-11-18T21:33:40;100815.55;;;-5.82;74.32
51617;BME280;37697;52.588;13.394;2022-11-18T21:38:41;100816.64;;;-5.87;74.36
51617;BME280;37697;52.588;13.394;2022-11-18T21:43:41;100817.02;;;-5.90;74.36
51617;BME280;37697;52.588;13.394;2022-11-18T21:48:43;100821.95;;;-5.94;74.45
51617;BME280;37697;52.588;13.394;2022-11-18T21:53:44;100816.50;;;-5.96;74.53
51617;BME280;37697;52.588;13.394;2022-11-18T21:58:46;100820.27;;;-6.01;74.58
51617;BME280;37697;52.588;13.394;2022-11-18T22:03:50;100821.34;;;-6.06;74.48
51617;BME280;37697;52.588;13.394;2022-11-18T22:08:52;100817.70;;;-6.10;74.56
51617;BME280;37697;52.588;13.394;2022-11-18T22:13:52;100819.42;;;-6.13;74.54
51617;BME280;37697;52.588;13.394;2022-11-18T22:18:55;100818.48;;;-6.16;74.54
51617;BME280;37697;52.588;13.394;2022-11-18T22:23:57;100821.73;;;-6.20;74.57
51617;BME280;37697;52.588;13.394;2022-11-18T22:28:59;100820.76;;;-6.23;74.56
51617;BME280;37697;52.588;13.394;2022-11-18T22:34:00;100823.81;;;-6.26;74.64
51617;BME280;37697;52.588;13.394;2022-11-18T22:39:01;100828.23;;;-6.30;74.59
51617;BME280;37697;52.588;13.394;2022-11-18T22:44:03;100828.27;;;-6.34;74.59
51617;BME280;37697;52.588;13.394;2022-11-18T22:49:05;100833.89;;;-6.39;74.55
51617;BME280;37697;52.588;13.394;2022-11-18T22:54:07;100837.64;;;-6.44;74.57
51617;BME280;37697;52.588;13.394;2022-11-18T22:59:09;100845.23;;;-6.48;74.55
51617;BME280;37697;52.588;13.394;2022-11-18T23:04:11;100839.61;;;-6.53;74.48
51617;BME280;37697;52.588;13.394;2022-11-18T23:09:12;100848.23;;;-6.58;74.57
51617;BME280;37697;52.588;13.394;2022-11-18T23:14:13;100851.98;;;-6.63;74.59
51617;BME280;37697;52.588;13.394;2022-11-18T23:19:15;100851.52;;;-6.67;74.67
51617;BME280;37697;52.588;13.394;2022-11-18T23:24:17;100851.70;;;-6.68;74.69
51617;BME280;37697;52.588;13.394;2022-11-18T23:29:18;100856.09;;;-6.71;74.69
51617;BME280;37697;52.588;13.394;2022-11-18T23:34:19;100851.09;;;-6.74;74.74
51617;BME280;37697;52.588;13.394;2022-11-18T23:39:20;100845.80;;;-6.78;74.73
51617;BME280;37697;52.588;13.394;2022-11-18T23:44:21;100849.70;;;-6.81;74.74
51617;BME280;37697;52.588;13.394;2022-11-18T23:49:23;100853.25;;;-6.84;74.76
51617;BME280;37697;52.588;13.394;2022-11-18T23:54:24;100861.66;;;-6.88;74.74
51617;BME280;37697;52.588;13.394;2022-11-18T23:59:25;100866.86;;;-6.90;74.75
